createdAt,value
2018-03-21T00:00:16.844Z,74.2
2018-03-21T00:01:16.874Z,74.2
2018-03-21T00:02:17.530Z,74.1
2018-03-21T00:03:16.788Z,73.5
2018-03-21T00:04:17.044Z,73.7
2018-03-21T00:05:16.322Z,73.7
2018-03-21T00:06:16.597Z,73.7
2018-03-21T00:07:16.849Z,73.7
2018-03-21T00:08:17.121Z,73.7
2018-03-21T00:09:16.382Z,73.7
2018-03-21T00:10:16.645Z,73.3
2018-03-21T00:11:16.704Z,73.3
2018-03-21T00:12:16.958Z,73.5
2018-03-21T00:13:17.221Z,73.5
2018-03-21T00:14:16.490Z,73.5
2018-03-21T00:15:16.754Z,73.5
2018-03-21T00:16:17.016Z,73.5
2018-03-21T00:17:16.275Z,74.2
2018-03-21T00:18:16.545Z,74.2
2018-03-21T00:19:16.820Z,74.2
2018-03-21T00:20:17.083Z,74.2
2018-03-21T00:21:17.151Z,74.2
2018-03-21T00:22:16.419Z,74.2
2018-03-21T00:23:16.674Z,74.3
2018-03-21T00:24:16.932Z,74.3
2018-03-21T00:25:17.197Z,74.4
2018-03-21T00:26:16.471Z,74.5
2018-03-21T00:27:16.730Z,74.6
2018-03-21T00:28:16.994Z,74.6
2018-03-21T00:29:16.257Z,75.2
2018-03-21T00:30:16.529Z,75.1
2018-03-21T00:31:16.583Z,75.2
2018-03-21T00:32:16.839Z,75.2
2018-03-21T00:33:17.108Z,75.3
2018-03-21T00:34:16.409Z,75.2
2018-03-21T00:35:16.669Z,75.3
2018-03-21T00:36:16.935Z,75.3
2018-03-21T00:37:17.212Z,75.5
2018-03-21T00:38:16.484Z,75.5
2018-03-21T00:39:16.758Z,75.5
2018-03-21T00:40:17.084Z,75.5
2018-03-21T00:41:17.053Z,75.5
2018-03-21T00:42:16.311Z,76.0
2018-03-21T00:43:16.596Z,76.0
2018-03-21T00:44:16.860Z,76.0
2018-03-21T00:45:17.130Z,76.0
2018-03-21T00:46:16.383Z,76.0
2018-03-21T00:47:16.651Z,76.0
2018-03-21T00:48:16.922Z,75.9
2018-03-21T00:49:17.183Z,75.9
2018-03-21T00:50:16.460Z,75.9
2018-03-21T00:51:16.517Z,76.0
2018-03-21T00:52:16.842Z,75.8
2018-03-21T00:53:17.201Z,76.0
2018-03-21T00:54:16.461Z,75.8
2018-03-21T00:55:16.735Z,75.8
2018-03-21T00:56:16.996Z,75.8
2018-03-21T00:57:16.251Z,75.9
2018-03-21T00:58:16.515Z,75.8
2018-03-21T00:59:16.784Z,75.8
2018-03-21T01:00:17.044Z,75.7
2018-03-21T01:01:17.103Z,75.7
2018-03-21T01:02:16.365Z,75.6
2018-03-21T01:03:16.628Z,75.3
2018-03-21T01:04:16.883Z,75.0
2018-03-21T01:05:17.145Z,75.0
2018-03-21T01:06:16.404Z,75.0
2018-03-21T01:07:16.666Z,74.6
2018-03-21T01:08:16.927Z,74.5
2018-03-21T01:09:17.187Z,74.0
2018-03-21T01:10:16.462Z,74.1
2018-03-21T01:11:16.517Z,74.1
2018-03-21T01:12:16.781Z,74.0
2018-03-21T01:13:17.039Z,74.1
2018-03-21T01:14:16.302Z,74.2
2018-03-21T01:15:16.616Z,74.2
2018-03-21T01:16:16.877Z,73.7
2018-03-21T01:17:17.136Z,73.7
2018-03-21T01:18:16.398Z,73.7
2018-03-21T01:19:16.686Z,73.7
2018-03-21T01:20:16.956Z,73.7
2018-03-21T01:21:16.996Z,73.7
2018-03-21T01:22:16.258Z,73.8
2018-03-21T01:23:16.555Z,73.8
2018-03-21T01:24:16.818Z,73.4
2018-03-21T01:25:17.082Z,73.4
2018-03-21T01:26:16.359Z,73.5
2018-03-21T01:27:16.627Z,73.5
2018-03-21T01:28:16.886Z,73.5
2018-03-21T01:29:17.151Z,73.5
2018-03-21T01:30:16.419Z,73.5
2018-03-21T01:31:16.475Z,73.5
2018-03-21T01:32:16.784Z,73.6
2018-03-21T01:33:17.049Z,73.5
2018-03-21T01:34:16.313Z,73.7
2018-03-21T01:35:16.568Z,73.6
2018-03-21T01:36:16.826Z,73.7
2018-03-21T01:37:17.092Z,73.8
2018-03-21T01:38:16.355Z,73.8
2018-03-21T01:39:16.626Z,73.8
2018-03-21T01:40:16.940Z,73.8
2018-03-21T01:41:16.927Z,73.8
2018-03-21T01:42:17.193Z,73.8
2018-03-21T01:43:16.454Z,74.0
2018-03-21T01:44:16.876Z,74.0
2018-03-21T01:45:17.148Z,74.5
2018-03-21T01:46:16.407Z,74.5
2018-03-21T01:47:16.673Z,74.5
2018-03-21T01:48:16.931Z,74.5
2018-03-21T01:49:17.198Z,74.5
2018-03-21T01:50:16.458Z,74.7
2018-03-21T01:51:16.480Z,74.7
2018-03-21T01:52:16.778Z,74.7
2018-03-21T01:53:17.041Z,74.8
2018-03-21T01:54:16.346Z,74.8
2018-03-21T01:55:16.600Z,74.9
2018-03-21T01:56:16.861Z,74.9
2018-03-21T01:57:17.127Z,75.0
2018-03-21T01:58:16.388Z,74.9
2018-03-21T01:59:16.648Z,75.5
2018-03-21T02:00:16.908Z,75.5
2018-03-21T02:01:16.965Z,75.5
2018-03-21T02:02:17.223Z,75.5
2018-03-21T02:03:16.499Z,75.5
2018-03-21T02:04:16.758Z,75.5
2018-03-21T02:05:17.025Z,75.5
2018-03-21T02:06:16.287Z,75.5
2018-03-21T02:07:16.556Z,75.6
2018-03-21T02:08:16.823Z,75.6
2018-03-21T02:09:17.367Z,76.2
2018-03-21T02:10:16.636Z,76.1
2018-03-21T02:11:16.686Z,76.0
2018-03-21T02:12:16.945Z,76.1
2018-03-21T02:13:17.204Z,76.2
2018-03-21T02:14:16.464Z,76.0
2018-03-21T02:15:16.733Z,76.0
2018-03-21T02:16:16.998Z,76.0
2018-03-21T02:17:16.258Z,76.2
2018-03-21T02:18:16.513Z,76.0
2018-03-21T02:19:16.777Z,76.0
2018-03-21T02:20:17.051Z,76.0
2018-03-21T02:21:17.076Z,75.9
2018-03-21T02:22:16.348Z,76.0
2018-03-21T02:23:16.611Z,75.8
2018-03-21T02:24:16.865Z,75.8
2018-03-21T02:25:17.128Z,75.8
2018-03-21T02:26:16.389Z,75.8
2018-03-21T02:27:16.649Z,75.9
2018-03-21T02:28:16.955Z,76.0
2018-03-21T02:29:17.212Z,75.8
2018-03-21T02:30:16.486Z,75.7
2018-03-21T02:31:16.516Z,75.7
2018-03-21T02:32:16.781Z,75.8
2018-03-21T02:33:17.056Z,75.9
2018-03-21T02:34:16.325Z,75.8
2018-03-21T02:35:16.595Z,75.9
2018-03-21T02:36:16.883Z,75.9
2018-03-21T02:37:17.142Z,76.0
2018-03-21T02:38:16.408Z,75.8
2018-03-21T02:39:16.671Z,75.8
2018-03-21T02:40:16.982Z,75.8
2018-03-21T02:41:16.985Z,75.8
2018-03-21T02:42:17.250Z,76.0
2018-03-21T02:43:16.538Z,75.8
2018-03-21T02:44:16.795Z,75.8
2018-03-21T02:45:17.063Z,75.7
2018-03-21T02:46:16.326Z,75.5
2018-03-21T02:47:16.599Z,75.6
2018-03-21T02:48:16.863Z,75.8
2018-03-21T02:49:17.128Z,75.8
2018-03-21T02:50:16.392Z,75.8
2018-03-21T02:51:16.439Z,75.8
2018-03-21T02:52:16.707Z,75.9
2018-03-21T02:53:16.983Z,75.8
2018-03-21T02:54:17.269Z,76.0
2018-03-21T02:55:16.537Z,76.0
2018-03-21T02:56:16.800Z,76.0
2018-03-21T02:57:17.066Z,76.0
2018-03-21T02:58:16.336Z,76.1
2018-03-21T02:59:16.603Z,75.9
2018-03-21T03:00:16.881Z,76.0
2018-03-21T03:01:16.939Z,76.0
2018-03-21T03:02:17.197Z,76.0
2018-03-21T03:03:16.461Z,76.0
2018-03-21T03:04:16.725Z,76.0
2018-03-21T03:05:17.001Z,75.8
2018-03-21T03:06:16.268Z,75.8
2018-03-21T03:07:16.548Z,75.8
2018-03-21T03:08:16.815Z,75.8
2018-03-21T03:09:17.079Z,75.9
2018-03-21T03:10:16.351Z,75.8
2018-03-21T03:11:16.384Z,75.8
2018-03-21T03:12:16.633Z,75.6
2018-03-21T03:13:16.900Z,75.2
2018-03-21T03:14:17.163Z,75.3
2018-03-21T03:15:16.418Z,75.2
2018-03-21T03:16:16.675Z,75.4
2018-03-21T03:17:16.931Z,75.2
2018-03-21T03:18:17.201Z,75.0
2018-03-21T03:19:16.458Z,75.0
2018-03-21T03:20:16.741Z,75.0
2018-03-21T03:21:16.752Z,75.2
2018-03-21T03:22:17.003Z,75.1
2018-03-21T03:23:16.268Z,75.0
2018-03-21T03:24:16.528Z,74.5
2018-03-21T03:25:16.799Z,74.5
2018-03-21T03:26:17.060Z,74.5
2018-03-21T03:27:16.324Z,74.3
2018-03-21T03:28:16.587Z,74.3
2018-03-21T03:29:16.852Z,74.2
2018-03-21T03:30:17.144Z,74.3
2018-03-21T03:31:17.165Z,74.3
2018-03-21T03:32:16.430Z,74.5
2018-03-21T03:33:16.785Z,74.3
2018-03-21T03:34:17.062Z,74.4
2018-03-21T03:35:16.323Z,74.3
2018-03-21T03:36:16.582Z,74.4
2018-03-21T03:37:16.847Z,74.5
2018-03-21T03:38:17.107Z,74.7
2018-03-21T03:39:16.375Z,74.7
2018-03-21T03:40:16.656Z,74.7
2018-03-21T03:41:16.249Z,75.0
2018-03-21T03:42:16.513Z,74.8
2018-03-21T03:43:16.781Z,74.8
2018-03-21T03:44:17.054Z,74.8
2018-03-21T03:45:16.315Z,74.8
2018-03-21T03:46:16.573Z,75.0
2018-03-21T03:47:16.839Z,75.0
2018-03-21T03:48:17.102Z,75.2
2018-03-21T03:49:16.370Z,75.1
2018-03-21T03:50:16.642Z,75.2
2018-03-21T03:51:16.677Z,75.2
2018-03-21T03:52:16.936Z,75.0
2018-03-21T03:53:17.196Z,75.0
2018-03-21T03:54:16.463Z,75.0
2018-03-21T03:55:16.735Z,75.0
2018-03-21T03:56:16.991Z,75.0
2018-03-21T03:57:16.258Z,74.9
2018-03-21T03:58:16.515Z,74.9
2018-03-21T03:59:16.811Z,75.5
2018-03-21T04:00:17.094Z,75.5
2018-03-21T04:01:17.099Z,75.4
2018-03-21T04:02:16.366Z,75.3
2018-03-21T04:03:16.632Z,74.8
2018-03-21T04:04:16.903Z,74.8
2018-03-21T04:05:17.165Z,75.0
2018-03-21T04:06:16.419Z,75.0
2018-03-21T04:07:16.705Z,75.0
2018-03-21T04:08:16.922Z,75.1
2018-03-21T04:09:17.184Z,75.2
2018-03-21T04:10:16.444Z,75.2
2018-03-21T04:11:16.497Z,75.3
2018-03-21T04:12:16.768Z,75.4
2018-03-21T04:13:17.031Z,75.4
2018-03-21T04:14:16.299Z,75.5
2018-03-21T04:15:16.567Z,75.3
2018-03-21T04:16:16.840Z,75.4
2018-03-21T04:17:17.097Z,75.5
2018-03-21T04:18:16.358Z,75.5
2018-03-21T04:19:16.626Z,76.2
2018-03-21T04:20:16.895Z,76.2
2018-03-21T04:21:16.937Z,76.1
2018-03-21T04:22:17.200Z,76.0
2018-03-21T04:23:16.979Z,76.0
2018-03-21T04:24:16.288Z,76.0
2018-03-21T04:25:16.550Z,76.0
2018-03-21T04:26:16.816Z,76.0
2018-03-21T04:27:17.077Z,76.0
2018-03-21T04:28:16.349Z,76.0
2018-03-21T04:29:16.609Z,76.6
2018-03-21T04:30:16.883Z,76.5
2018-03-21T04:31:16.927Z,76.5
2018-03-21T04:32:17.186Z,76.5
2018-03-21T04:33:16.443Z,76.5
2018-03-21T04:34:16.704Z,76.6
2018-03-21T04:35:16.960Z,76.6
2018-03-21T04:36:17.229Z,76.6
2018-03-21T04:37:16.483Z,76.7
2018-03-21T04:38:16.744Z,76.7
2018-03-21T04:39:17.004Z,76.8
2018-03-21T04:40:16.270Z,76.8
2018-03-21T04:41:16.310Z,76.8
2018-03-21T04:42:16.572Z,76.8
2018-03-21T04:43:16.829Z,76.8
2018-03-21T04:44:17.406Z,76.8
2018-03-21T04:45:16.681Z,77.4
2018-03-21T04:46:16.943Z,77.3
2018-03-21T04:47:17.202Z,77.3
2018-03-21T04:48:16.482Z,77.3
2018-03-21T04:49:16.743Z,77.4
2018-03-21T04:50:17.005Z,77.4
2018-03-21T04:51:17.156Z,77.5
2018-03-21T04:52:16.432Z,77.5
2018-03-21T04:53:16.697Z,77.5
2018-03-21T04:54:16.961Z,77.5
2018-03-21T04:55:17.224Z,77.6
2018-03-21T04:56:16.543Z,77.6
2018-03-21T04:57:16.808Z,77.8
2018-03-21T04:58:17.069Z,77.8
2018-03-21T04:59:16.342Z,77.8
2018-03-21T05:00:16.615Z,77.8
2018-03-21T05:01:16.646Z,77.9
2018-03-21T05:02:16.913Z,78.0
2018-03-21T05:03:17.231Z,78.0
2018-03-21T05:04:16.492Z,78.2
2018-03-21T05:05:16.755Z,78.7
2018-03-21T05:06:17.013Z,78.6
2018-03-21T05:07:16.270Z,78.8
2018-03-21T05:08:16.526Z,78.2
2018-03-21T05:09:16.786Z,78.3
2018-03-21T05:10:17.059Z,78.2
2018-03-21T05:11:17.101Z,78.3
2018-03-21T05:12:16.361Z,78.3
2018-03-21T05:13:16.613Z,78.3
2018-03-21T05:14:16.870Z,78.3
2018-03-21T05:15:17.144Z,78.5
2018-03-21T05:16:16.456Z,78.5
2018-03-21T05:17:16.735Z,78.6
2018-03-21T05:18:17.001Z,78.5
2018-03-21T05:19:16.270Z,78.8
2018-03-21T05:20:16.549Z,78.8
2018-03-21T05:21:16.562Z,78.7
2018-03-21T05:22:16.837Z,79.1
2018-03-21T05:23:17.094Z,79.2
2018-03-21T05:24:16.408Z,79.1
2018-03-21T05:25:16.694Z,79.2
2018-03-21T05:26:16.963Z,79.2
2018-03-21T05:27:17.740Z,79.2
2018-03-21T05:28:17.004Z,79.2
2018-03-21T05:29:16.265Z,79.2
2018-03-21T05:30:16.548Z,79.0
2018-03-21T05:31:16.592Z,79.1
2018-03-21T05:32:16.850Z,79.1
2018-03-21T05:33:17.110Z,79.2
2018-03-21T05:34:16.372Z,79.2
2018-03-21T05:35:16.632Z,79.2
2018-03-21T05:36:16.888Z,79.2
2018-03-21T05:37:17.163Z,79.8
2018-03-21T05:38:16.429Z,79.8
2018-03-21T05:39:16.689Z,79.8
2018-03-21T05:40:16.960Z,79.8
2018-03-21T05:41:17.034Z,80.2
2018-03-21T05:42:16.308Z,80.3
2018-03-21T05:43:16.563Z,80.4
2018-03-21T05:44:16.839Z,80.5
2018-03-21T05:45:17.121Z,80.5
2018-03-21T05:46:16.389Z,80.5
2018-03-21T05:47:16.660Z,80.5
2018-03-21T05:48:16.936Z,80.5
2018-03-21T05:49:17.195Z,80.5
2018-03-21T05:50:16.468Z,80.5
2018-03-21T05:51:16.500Z,80.5
2018-03-21T05:52:16.756Z,80.5
2018-03-21T05:53:17.023Z,80.5
2018-03-21T05:54:16.291Z,80.5
2018-03-21T05:55:16.558Z,80.4
2018-03-21T05:56:16.816Z,80.5
2018-03-21T05:57:17.079Z,80.3
2018-03-21T05:58:16.335Z,80.2
2018-03-21T05:59:16.601Z,80.2
2018-03-21T06:00:16.868Z,80.2
2018-03-21T06:01:17.027Z,80.1
2018-03-21T06:02:16.287Z,80.0
2018-03-21T06:03:16.548Z,79.8
2018-03-21T06:04:16.915Z,79.8
2018-03-21T06:05:17.201Z,79.7
2018-03-21T06:06:16.470Z,79.5
2018-03-21T06:07:16.736Z,79.4
2018-03-21T06:08:17.040Z,79.0
2018-03-21T06:09:16.292Z,79.0
2018-03-21T06:10:16.552Z,78.9
2018-03-21T06:11:16.612Z,78.6
2018-03-21T06:12:16.872Z,78.5
2018-03-21T06:13:17.143Z,78.3
2018-03-21T06:14:16.417Z,78.0
2018-03-21T06:15:16.676Z,78.0
2018-03-21T06:16:16.932Z,77.9
2018-03-21T06:17:17.194Z,77.5
2018-03-21T06:18:16.463Z,77.3
2018-03-21T06:19:16.720Z,76.7
2018-03-21T06:20:16.995Z,76.5
2018-03-21T06:21:17.027Z,76.3
2018-03-21T06:22:16.323Z,76.2
2018-03-21T06:23:16.588Z,76.0
2018-03-21T06:24:16.854Z,75.8
2018-03-21T06:25:17.112Z,75.2
2018-03-21T06:26:16.371Z,75.3
2018-03-21T06:27:16.647Z,75.2
2018-03-21T06:28:16.906Z,74.9
2018-03-21T06:29:17.170Z,74.5
2018-03-21T06:30:16.577Z,73.7
2018-03-21T06:31:16.490Z,73.9
2018-03-21T06:32:16.761Z,73.8
2018-03-21T06:33:17.022Z,73.3
2018-03-21T06:34:16.286Z,73.2
2018-03-21T06:35:16.564Z,73.0
2018-03-21T06:36:16.845Z,72.8
2018-03-21T06:37:17.107Z,72.8
2018-03-21T06:38:16.368Z,72.4
2018-03-21T06:39:16.633Z,72.1
2018-03-21T06:40:16.902Z,71.7
2018-03-21T06:41:16.936Z,71.7
2018-03-21T06:42:17.195Z,71.6
2018-03-21T06:43:16.457Z,71.5
2018-03-21T06:44:16.717Z,71.3
2018-03-21T06:45:17.024Z,70.8
2018-03-21T06:46:16.311Z,70.8
2018-03-21T06:47:16.573Z,70.8
2018-03-21T06:48:16.829Z,70.8
2018-03-21T06:49:17.088Z,70.4
2018-03-21T06:50:16.348Z,70.1
2018-03-21T06:51:16.392Z,70.2
2018-03-21T06:52:16.657Z,69.3
2018-03-21T06:53:16.930Z,69.5
2018-03-21T06:54:17.519Z,69.5
2018-03-21T06:55:16.790Z,69.2
2018-03-21T06:56:17.062Z,69.0
2018-03-21T06:57:16.320Z,68.7
2018-03-21T06:58:16.572Z,68.0
2018-03-21T06:59:16.826Z,68.0
2018-03-21T07:00:17.111Z,68.0
2018-03-21T07:01:17.136Z,67.8
2018-03-21T07:02:16.399Z,68.0
2018-03-21T07:03:16.660Z,67.8
2018-03-21T07:04:16.918Z,67.4
2018-03-21T07:05:17.179Z,67.2
2018-03-21T07:06:16.436Z,67.0
2018-03-21T07:07:16.707Z,66.8
2018-03-21T07:08:16.969Z,66.0
2018-03-21T07:09:17.235Z,66.5
2018-03-21T07:10:16.504Z,66.5
2018-03-21T07:11:16.546Z,66.8
2018-03-21T07:12:16.805Z,66.0
2018-03-21T07:13:17.066Z,65.8
2018-03-21T07:14:16.334Z,65.3
2018-03-21T07:15:16.598Z,65.0
2018-03-21T07:16:16.861Z,65.3
2018-03-21T07:17:17.121Z,65.8
2018-03-21T07:18:16.385Z,65.2
2018-03-21T07:19:16.643Z,64.9
2018-03-21T07:20:16.907Z,64.2
2018-03-21T07:21:16.959Z,63.9
2018-03-21T07:22:17.224Z,63.0
2018-03-21T07:23:16.481Z,63.1
2018-03-21T07:24:16.751Z,62.6
2018-03-21T07:25:17.009Z,63.6
2018-03-21T07:26:16.284Z,63.8
2018-03-21T07:27:16.536Z,63.2
2018-03-21T07:28:16.796Z,63.0
2018-03-21T07:29:17.059Z,60.9
2018-03-21T07:30:16.332Z,60.8
2018-03-21T07:31:16.373Z,60.9
2018-03-21T07:32:16.635Z,59.8
2018-03-21T07:33:16.896Z,60.2
2018-03-21T07:34:17.161Z,60.2
2018-03-21T07:35:16.433Z,59.9
2018-03-21T07:36:16.695Z,59.2
2018-03-21T07:37:16.952Z,59.4
2018-03-21T07:38:17.212Z,59.1
2018-03-21T07:39:16.485Z,59.5
2018-03-21T07:40:16.806Z,59.0
2018-03-21T07:41:16.807Z,58.5
2018-03-21T07:42:17.062Z,58.0
2018-03-21T07:43:16.325Z,58.0
2018-03-21T07:44:16.585Z,58.2
2018-03-21T07:45:16.850Z,57.5
2018-03-21T07:46:17.116Z,57.3
2018-03-21T07:47:16.384Z,56.6
2018-03-21T07:48:16.659Z,55.9
2018-03-21T07:49:16.920Z,55.5
2018-03-21T07:50:17.195Z,55.0
2018-03-21T07:51:17.231Z,55.4
2018-03-21T07:52:16.502Z,55.0
2018-03-21T07:53:16.767Z,54.5
2018-03-21T07:54:17.031Z,54.1
2018-03-21T07:55:16.298Z,54.3
2018-03-21T07:56:16.556Z,54.2
2018-03-21T07:57:16.823Z,54.4
2018-03-21T07:58:17.078Z,54.6
2018-03-21T07:59:16.344Z,54.5
2018-03-21T08:00:16.624Z,54.5
2018-03-21T08:01:16.639Z,53.9
2018-03-21T08:02:17.038Z,53.1
2018-03-21T08:03:16.300Z,53.4
2018-03-21T08:04:16.565Z,52.6
2018-03-21T08:05:16.826Z,52.5
2018-03-21T08:06:17.087Z,52.5
2018-03-21T08:07:16.351Z,51.8
2018-03-21T08:08:16.728Z,51.6
2018-03-21T08:09:16.999Z,51.0
2018-03-21T08:10:16.266Z,50.2
2018-03-21T08:11:16.313Z,50.2
2018-03-21T08:12:16.582Z,49.9
2018-03-21T08:13:16.839Z,50.5
2018-03-21T08:14:17.095Z,49.6
2018-03-21T08:15:16.363Z,49.3
2018-03-21T08:16:16.635Z,48.6
2018-03-21T08:17:16.904Z,48.0
2018-03-21T08:18:17.165Z,48.1
2018-03-21T08:19:16.431Z,48.2
2018-03-21T08:20:16.711Z,48.1
2018-03-21T08:21:16.744Z,47.6
2018-03-21T08:22:17.003Z,47.1
2018-03-21T08:23:16.271Z,47.6
2018-03-21T08:24:16.531Z,48.0
2018-03-21T08:25:16.797Z,47.6
2018-03-21T08:26:17.070Z,46.2
2018-03-21T08:27:16.342Z,45.6
2018-03-21T08:28:16.612Z,45.5
2018-03-21T08:29:16.877Z,46.8
2018-03-21T08:30:17.167Z,46.2
2018-03-21T08:31:17.198Z,46.8
2018-03-21T08:32:16.454Z,46.2
2018-03-21T08:33:16.722Z,46.0
2018-03-21T08:34:16.992Z,44.9
2018-03-21T08:35:16.255Z,44.2
2018-03-21T08:36:16.518Z,44.1
2018-03-21T08:37:16.780Z,44.8
2018-03-21T08:38:17.042Z,43.2
2018-03-21T08:39:16.304Z,42.6
2018-03-21T08:40:16.580Z,42.4
2018-03-21T08:41:16.611Z,41.0
2018-03-21T08:42:16.888Z,41.2
2018-03-21T08:43:17.150Z,41.5
2018-03-21T08:44:16.410Z,41.3
2018-03-21T08:45:16.676Z,42.7
2018-03-21T08:46:16.950Z,42.9
2018-03-21T08:47:17.226Z,42.5
2018-03-21T08:48:16.488Z,42.8
2018-03-21T08:49:16.758Z,42.5
2018-03-21T08:50:17.027Z,42.4
2018-03-21T08:51:17.068Z,43.0
2018-03-21T08:52:16.322Z,43.5
2018-03-21T08:53:16.580Z,41.5
2018-03-21T08:54:16.850Z,40.6
2018-03-21T08:55:17.125Z,40.5
2018-03-21T08:56:16.384Z,39.8
2018-03-21T08:57:16.640Z,38.5
2018-03-21T08:58:16.900Z,38.2
2018-03-21T08:59:17.158Z,38.8
2018-03-21T09:00:16.427Z,39.7
2018-03-21T09:01:16.477Z,38.8
2018-03-21T09:02:16.747Z,38.8
2018-03-21T09:03:17.016Z,38.2
2018-03-21T09:04:16.283Z,39.2
2018-03-21T09:05:16.544Z,40.0
2018-03-21T09:06:16.799Z,39.9
2018-03-21T09:07:17.059Z,41.8
2018-03-21T09:08:16.323Z,42.2
2018-03-21T09:09:16.582Z,40.6
2018-03-21T09:10:16.855Z,40.4
2018-03-21T09:11:16.902Z,41.3
2018-03-21T09:12:17.151Z,39.9
2018-03-21T09:13:16.408Z,39.3
2018-03-21T09:14:16.677Z,39.4
2018-03-21T09:15:16.952Z,39.7
2018-03-21T09:16:17.213Z,39.0
2018-03-21T09:17:16.475Z,38.1
2018-03-21T09:18:16.865Z,38.4
2018-03-21T09:19:17.134Z,37.9
2018-03-21T09:20:16.429Z,38.2
2018-03-21T09:21:16.455Z,37.4
2018-03-21T09:22:16.720Z,36.7
2018-03-21T09:23:16.985Z,37.4
2018-03-21T09:24:17.248Z,36.8
2018-03-21T09:25:16.801Z,36.9
2018-03-21T09:26:17.076Z,37.2
2018-03-21T09:27:16.341Z,37.4
2018-03-21T09:28:16.601Z,37.4
2018-03-21T09:29:16.869Z,35.8
2018-03-21T09:30:17.148Z,36.0
2018-03-21T09:31:17.178Z,36.5
2018-03-21T09:32:16.460Z,36.0
2018-03-21T09:33:16.719Z,35.6
2018-03-21T09:34:16.989Z,35.5
2018-03-21T09:35:16.244Z,35.6
2018-03-21T09:36:16.505Z,35.2
2018-03-21T09:37:16.772Z,35.0
2018-03-21T09:38:17.032Z,34.3
2018-03-21T09:39:16.296Z,34.0
2018-03-21T09:40:16.570Z,33.6
2018-03-21T09:41:16.602Z,34.5
2018-03-21T09:42:16.887Z,34.8
2018-03-21T09:43:17.147Z,36.4
2018-03-21T09:44:16.405Z,36.8
2018-03-21T09:45:16.683Z,36.9
2018-03-21T09:46:16.948Z,35.8
2018-03-21T09:47:17.224Z,35.6
2018-03-21T09:48:16.482Z,34.8
2018-03-21T09:49:16.752Z,34.5
2018-03-21T09:50:17.017Z,33.2
2018-03-21T09:51:17.080Z,33.4
2018-03-21T09:52:16.334Z,32.7
2018-03-21T09:53:16.602Z,33.0
2018-03-21T09:54:16.856Z,33.1
2018-03-21T09:55:17.124Z,31.9
2018-03-21T09:56:16.388Z,33.0
2018-03-21T09:57:16.640Z,32.1
2018-03-21T09:58:16.904Z,33.9
2018-03-21T09:59:17.173Z,34.6
2018-03-21T10:00:16.436Z,34.5
2018-03-21T10:01:16.485Z,34.5
2018-03-21T10:02:16.755Z,36.1
2018-03-21T10:03:17.021Z,35.2
2018-03-21T10:04:16.281Z,32.6
2018-03-21T10:05:16.548Z,31.9
2018-03-21T10:06:16.884Z,31.8
2018-03-21T10:07:17.146Z,31.9
2018-03-21T10:08:16.405Z,31.8
2018-03-21T10:09:16.664Z,31.9
2018-03-21T10:10:16.933Z,31.6
2018-03-21T10:11:16.973Z,31.2
2018-03-21T10:12:17.243Z,30.9
2018-03-21T10:13:16.504Z,31.2
2018-03-21T10:14:16.791Z,30.8
2018-03-21T10:15:17.053Z,31.1
2018-03-21T10:16:16.313Z,32.5
2018-03-21T10:17:16.577Z,34.3
2018-03-21T10:18:16.830Z,36.0
2018-03-21T10:19:17.095Z,35.1
2018-03-21T10:20:16.351Z,34.5
2018-03-21T10:21:16.406Z,34.1
2018-03-21T10:22:16.680Z,33.9
2018-03-21T10:23:16.990Z,33.7
2018-03-21T10:24:16.260Z,33.3
2018-03-21T10:25:16.522Z,34.8
2018-03-21T10:26:16.786Z,34.3
2018-03-21T10:27:17.047Z,34.3
2018-03-21T10:28:16.307Z,33.4
2018-03-21T10:29:16.613Z,31.1
2018-03-21T10:30:16.896Z,31.1
2018-03-21T10:31:16.928Z,31.4
2018-03-21T10:32:17.200Z,31.1
2018-03-21T10:33:16.465Z,32.7
2018-03-21T10:34:16.722Z,30.2
2018-03-21T10:35:16.984Z,31.9
2018-03-21T10:36:17.241Z,32.9
2018-03-21T10:37:16.513Z,32.1
2018-03-21T10:38:16.782Z,32.7
2018-03-21T10:39:17.047Z,32.2
2018-03-21T10:40:16.346Z,31.6
2018-03-21T10:41:16.355Z,31.4
2018-03-21T10:42:16.613Z,31.1
2018-03-21T10:43:16.877Z,30.6
2018-03-21T10:44:17.149Z,30.9
2018-03-21T10:45:16.418Z,30.9
2018-03-21T10:46:16.687Z,30.4
2018-03-21T10:47:16.956Z,29.4
2018-03-21T10:48:17.223Z,29.4
2018-03-21T10:49:16.488Z,29.6
2018-03-21T10:50:16.760Z,30.1
2018-03-21T10:51:16.804Z,30.6
2018-03-21T10:52:17.066Z,30.0
2018-03-21T10:53:16.329Z,29.7
2018-03-21T10:54:16.588Z,30.1
2018-03-21T10:55:16.860Z,30.7
2018-03-21T10:56:17.148Z,30.8
2018-03-21T10:57:16.415Z,29.8
2018-03-21T10:58:16.674Z,31.1
2018-03-21T10:59:16.931Z,32.2
2018-03-21T11:00:17.208Z,31.7
2018-03-21T11:01:17.244Z,31.6
2018-03-21T11:02:16.505Z,32.1
2018-03-21T11:03:16.764Z,31.1
2018-03-21T11:04:17.035Z,30.3
2018-03-21T11:05:16.312Z,31.0
2018-03-21T11:06:16.573Z,29.4
2018-03-21T11:07:16.839Z,30.4
2018-03-21T11:08:17.098Z,29.4
2018-03-21T11:09:16.356Z,28.6
2018-03-21T11:10:16.624Z,28.9
2018-03-21T11:11:16.658Z,29.2
2018-03-21T11:12:16.920Z,28.9
2018-03-21T11:13:17.178Z,28.9
2018-03-21T11:14:16.438Z,29.8
2018-03-21T11:15:16.696Z,28.9
2018-03-21T11:16:16.960Z,28.9
2018-03-21T11:17:17.223Z,31.1
2018-03-21T11:18:16.488Z,30.6
2018-03-21T11:19:16.804Z,29.3
2018-03-21T11:20:17.088Z,28.8
2018-03-21T11:21:17.139Z,29.1
2018-03-21T11:22:16.398Z,28.8
2018-03-21T11:23:16.660Z,27.7
2018-03-21T11:24:16.930Z,28.5
2018-03-21T11:25:17.213Z,27.9
2018-03-21T11:26:16.480Z,30.5
2018-03-21T11:27:16.745Z,30.3
2018-03-21T11:28:16.997Z,29.6
2018-03-21T11:29:16.267Z,30.2
2018-03-21T11:30:16.548Z,29.4
2018-03-21T11:31:16.579Z,29.4
2018-03-21T11:32:16.842Z,29.1
2018-03-21T11:33:17.113Z,30.2
2018-03-21T11:34:16.385Z,28.8
2018-03-21T11:35:16.653Z,28.7
2018-03-21T11:36:16.923Z,28.2
2018-03-21T11:37:17.188Z,28.1
2018-03-21T11:38:16.456Z,28.1
2018-03-21T11:39:16.715Z,28.4
2018-03-21T11:40:17.043Z,29.4
2018-03-21T11:41:17.035Z,30.0
2018-03-21T11:42:16.300Z,29.6
2018-03-21T11:43:16.565Z,28.8
2018-03-21T11:44:16.843Z,28.8
2018-03-21T11:45:17.109Z,29.1
2018-03-21T11:46:16.377Z,30.4
2018-03-21T11:47:16.637Z,30.3
2018-03-21T11:48:16.897Z,29.4
2018-03-21T11:49:17.159Z,29.6
2018-03-21T11:50:16.421Z,29.5
2018-03-21T11:51:16.473Z,32.2
2018-03-21T11:52:16.741Z,32.5
2018-03-21T11:53:17.004Z,31.9
2018-03-21T11:54:16.273Z,30.7
2018-03-21T11:55:16.529Z,30.4
2018-03-21T11:56:16.788Z,30.2
2018-03-21T11:57:17.052Z,30.1
2018-03-21T11:58:16.313Z,30.3
2018-03-21T11:59:16.573Z,30.1
2018-03-21T12:00:16.830Z,30.7
2018-03-21T12:01:16.872Z,30.6
2018-03-21T12:02:17.137Z,30.2
2018-03-21T12:03:16.404Z,30.8
2018-03-21T12:04:16.664Z,32.0
2018-03-21T12:05:16.941Z,30.4
2018-03-21T12:06:17.202Z,31.4
2018-03-21T12:07:16.465Z,31.4
2018-03-21T12:08:16.720Z,31.3
2018-03-21T12:09:17.003Z,31.4
2018-03-21T12:10:16.278Z,32.3
2018-03-21T12:11:16.316Z,32.5
2018-03-21T12:12:16.584Z,31.6
2018-03-21T12:13:16.841Z,31.1
2018-03-21T12:14:17.114Z,31.7
2018-03-21T12:15:16.368Z,32.2
2018-03-21T12:16:16.618Z,32.2
2018-03-21T12:17:16.895Z,32.5
2018-03-21T12:18:17.153Z,32.8
2018-03-21T12:19:16.423Z,32.1
2018-03-21T12:20:16.691Z,32.4
2018-03-21T12:21:16.734Z,32.5
2018-03-21T12:22:16.994Z,31.9
2018-03-21T12:23:16.252Z,32.2
2018-03-21T12:24:16.516Z,32.8
2018-03-21T12:25:16.786Z,33.4
2018-03-21T12:26:17.059Z,32.6
2018-03-21T12:27:16.433Z,32.8
2018-03-21T12:28:16.698Z,33.5
2018-03-21T12:29:16.959Z,33.4
2018-03-21T12:30:17.241Z,33.1
2018-03-21T12:31:16.274Z,33.2
2018-03-21T12:32:16.537Z,33.3
2018-03-21T12:33:16.792Z,33.1
2018-03-21T12:34:17.054Z,33.2
2018-03-21T12:35:16.311Z,33.8
2018-03-21T12:36:16.589Z,33.9
2018-03-21T12:37:16.852Z,33.2
2018-03-21T12:38:17.110Z,33.6
2018-03-21T12:39:16.389Z,32.4
2018-03-21T12:40:16.661Z,33.0
2018-03-21T12:41:16.709Z,32.4
2018-03-21T12:42:16.972Z,32.9
2018-03-21T12:43:17.236Z,33.1
2018-03-21T12:44:16.492Z,32.7
2018-03-21T12:45:16.766Z,33.4
2018-03-21T12:46:17.042Z,32.5
2018-03-21T12:47:16.307Z,31.4
2018-03-21T12:48:16.564Z,31.6
2018-03-21T12:49:16.818Z,32.2
2018-03-21T12:50:17.085Z,31.9
2018-03-21T12:51:17.120Z,31.6
2018-03-21T12:52:16.380Z,31.4
2018-03-21T12:53:16.645Z,31.6
2018-03-21T12:54:16.913Z,31.7
2018-03-21T12:55:17.172Z,31.9
2018-03-21T12:56:16.594Z,32.1
2018-03-21T12:57:16.926Z,32.1
2018-03-21T12:58:17.188Z,32.8
2018-03-21T12:59:16.452Z,33.2
2018-03-21T13:00:16.726Z,33.0
2018-03-21T13:01:16.772Z,32.8
2018-03-21T13:02:17.098Z,32.5
2018-03-21T13:03:16.362Z,32.7
2018-03-21T13:04:16.621Z,33.1
2018-03-21T13:05:16.882Z,33.2
2018-03-21T13:06:17.152Z,33.4
2018-03-21T13:07:16.411Z,33.0
2018-03-21T13:08:16.675Z,32.6
2018-03-21T13:09:16.941Z,33.1
2018-03-21T13:10:17.203Z,33.1
2018-03-21T13:11:16.252Z,32.8
2018-03-21T13:12:16.516Z,32.7
2018-03-21T13:13:16.787Z,32.7
2018-03-21T13:14:17.066Z,32.1
2018-03-21T13:15:16.332Z,32.0
2018-03-21T13:16:16.685Z,31.8
2018-03-21T13:17:16.950Z,32.2
2018-03-21T13:18:17.206Z,32.6